Darrouzett, TX (79024)

2:39 AM CDT on July 26, 2014 (GMT -0500)
Perryton Ochiltree County (KPYX) Elev 2917 ft | 36.41 °N, 100.75 °W | Change Station

Current weather conditions updated 24 minutes ago

Clear
Clear
83 °F
Feels Like 83 °F
N
9
Wind Variable Wind from SSW

Today is forecast to be nearly the same temperature as yesterday.

Today
High -- | Low -- °F
--% Chance of Precip.
Yesterday
High -- | Low -- °F
Precip. -- in
6:43 AM 8:52 PM
Waning Crescent, 0% visible
Pressure 29.96 in
Visibility 10.0 miles
Clouds Clear
Dew Point 48 °F
Humidity 30%
Rainfall 0.00 in
Snow Depth Not available.
UV 0 out of 12
Pollen 7.40 out of 12
Air Quality Not available.
Flu Activity Not available.
METAR KPYX 260715Z AUTO 21008KT 10SM CLR 28/09 A2996 RMK AO2 T02810089

More Conditions Fewer Conditions

Pressure 29.96 in
Visibility 10.0 miles
Clouds Clear
Dew Point 48 °F
Humidity 30%
Rainfall 0.00 in
Snow Depth Not available.
UV 0 out of 12
Pollen 7.40 out of 12
Air Quality Not available.
Flu Activity Not available.
METAR KPYX 260715Z AUTO 21008KT 10SM CLR 28/09 A2996 RMK AO2 T02810089

More Conditions Fewer Conditions

10-Day Weather Forecast

Almanac

Astronomy

Jul. 26, 2014 Rise Set
Actual Time 6:43 AM CDT 8:52 PM CDT
Civil Twilight 6:14 AM CDT 9:21 PM CDT
Nautical Twilight 5:38 AM CDT 9:56 PM CDT
Astronomical Twilight 5:00 AM CDT 10:34 PM CDT
Moon 6:35 AM CDT 8:30 PM CDT
Length of Visible Light 15h 06m
Length of Day
14h 09m
Tomorrow will be 1m 36s shorter.
Waning Crescent, 0% of the Moon is Illuminated
Today
Waning Crescent
Jul 26
New
Aug 3
First Quarter
Aug 10
Full
Aug 17
Last Quarter

Today's Extremes

State Highs State Lows

Community

WunderPhotos

Upload Photos

1,737,527 photos uploaded!

Nearby

Snow Depth

Station Depth Elevation
No new snow has been reported.

Earthquake Activity

City Distance Mag. Time & Date
No recent earthquake activity has been reported nearby.
Minimum magnitude displayed is 2.5.

Coastal Water Temperatures

Place Temperature
No Stations Reporting

Nearby Weather Stations

Station Location Temp. Heat Index Dew Point Humidity Wind Precip. Elev Updated Type
Zender Laundromat, Booker, TX 83.1 °F 83 °F 60 °F 45% SSE  at  4.5 mph 0.00 in / hr 2844 ft 11:28 PM CDT Rapid Fire

Show More Stations Show Fewer Stations